sensor_id;sensor_type;location;lat;lon;timestamp;pressure;altitude;pressure_sealevel;temperature;humidity
57791;BME280;43621;51.798;21.588;2022-10-31T00:03:06;100257.06;;;10.38;67.42
57791;BME280;43621;51.798;21.588;2022-10-31T00:07:11;100261.45;;;10.32;67.49
57791;BME280;43621;51.798;21.588;2022-10-31T00:11:16;100258.83;;;10.24;67.46
57791;BME280;43621;51.798;21.588;2022-10-31T00:15:21;100263.12;;;10.16;67.39
57791;BME280;43621;51.798;21.588;2022-10-31T00:19:26;100267.23;;;10.13;67.46
57791;BME280;43621;51.798;21.588;2022-10-31T00:23:31;100274.12;;;10.14;67.51
57791;BME280;43621;51.798;21.588;2022-10-31T00:27:36;100268.77;;;10.13;67.77
57791;BME280;43621;51.798;21.588;2022-10-31T00:31:40;100269.64;;;10.11;67.79
57791;BME280;43621;51.798;21.588;2022-10-31T00:35:50;100272.36;;;10.06;67.72
57791;BME280;43621;51.798;21.588;2022-10-31T00:39:55;100271.45;;;9.98;67.74
57791;BME280;43621;51.798;21.588;2022-10-31T00:44:00;100271.34;;;9.93;67.69
57791;BME280;43621;51.798;21.588;2022-10-31T00:48:06;100271.30;;;9.93;67.79
57791;BME280;43621;51.798;21.588;2022-10-31T00:52:11;100270.02;;;9.92;67.78
57791;BME280;43621;51.798;21.588;2022-10-31T00:56:16;100273.34;;;9.88;67.81
57791;BME280;43621;51.798;21.588;2022-10-31T01:00:21;100274.83;;;9.83;67.79
57791;BME280;43621;51.798;21.588;2022-10-31T01:04:26;100279.28;;;9.78;67.93
57791;BME280;43621;51.798;21.588;2022-10-31T01:08:31;100279.54;;;9.75;67.89
57791;BME280;43621;51.798;21.588;2022-10-31T01:12:39;100279.09;;;9.74;67.94
57791;BME280;43621;51.798;21.588;2022-10-31T01:16:44;100282.08;;;9.71;67.91
57791;BME280;43621;51.798;21.588;2022-10-31T01:20:58;100283.31;;;9.67;67.89
57791;BME280;43621;51.798;21.588;2022-10-31T01:25:04;100286.19;;;9.62;68.02
57791;BME280;43621;51.798;21.588;2022-10-31T01:29:10;100286.64;;;9.56;67.97
57791;BME280;43621;51.798;21.588;2022-10-31T01:33:15;100288.60;;;9.56;68.15
57791;BME280;43621;51.798;21.588;2022-10-31T01:37:20;100288.81;;;9.64;68.38
57791;BME280;43621;51.798;21.588;2022-10-31T01:41:27;100286.11;;;9.65;68.17
57791;BME280;43621;51.798;21.588;2022-10-31T01:45:33;100284.33;;;9.59;68.05
57791;BME280;43621;51.798;21.588;2022-10-31T01:49:40;100282.23;;;9.51;67.95
57791;BME280;43621;51.798;21.588;2022-10-31T01:53:47;100277.64;;;9.41;67.89
57791;BME280;43621;51.798;21.588;2022-10-31T01:57:55;100277.48;;;9.37;67.86
57791;BME280;43621;51.798;21.588;2022-10-31T02:02:01;100281.00;;;9.36;67.90
57791;BME280;43621;51.798;21.588;2022-10-31T02:06:08;100283.27;;;9.36;68.07
57791;BME280;43621;51.798;21.588;2022-10-31T02:10:16;100288.77;;;9.35;68.06
57791;BME280;43621;51.798;21.588;2022-10-31T02:14:22;100290.05;;;9.29;68.13
57791;BME280;43621;51.798;21.588;2022-10-31T02:18:29;100291.70;;;9.22;68.06
57791;BME280;43621;51.798;21.588;2022-10-31T02:22:43;100291.62;;;9.19;68.11
57791;BME280;43621;51.798;21.588;2022-10-31T02:27:08;100296.34;;;9.25;68.35
57791;BME280;43621;51.798;21.588;2022-10-31T02:31:25;100298.86;;;9.28;68.33
57791;BME280;43621;51.798;21.588;2022-10-31T02:35:53;100303.14;;;9.25;68.22
57791;BME280;43621;51.798;21.588;2022-10-31T02:40:09;100307.48;;;9.19;68.12
57791;BME280;43621;51.798;21.588;2022-10-31T02:44:22;100307.36;;;9.12;68.10
57791;BME280;43621;51.798;21.588;2022-10-31T02:48:28;100303.19;;;9.09;68.00
57791;BME280;43621;51.798;21.588;2022-10-31T02:52:35;100299.62;;;9.08;67.90
57791;BME280;43621;51.798;21.588;2022-10-31T02:56:40;100296.11;;;9.06;67.90
57791;BME280;43621;51.798;21.588;2022-10-31T03:01:10;100300.58;;;9.05;68.19
57791;BME280;43621;51.798;21.588;2022-10-31T03:05:28;100301.23;;;9.01;68.25
57791;BME280;43621;51.798;21.588;2022-10-31T03:09:44;100298.45;;;8.99;68.34
57791;BME280;43621;51.798;21.588;2022-10-31T03:13:56;100298.23;;;8.93;68.25
57791;BME280;43621;51.798;21.588;2022-10-31T03:18:07;100300.84;;;8.84;68.18
57791;BME280;43621;51.798;21.588;2022-10-31T03:22:17;100302.45;;;8.81;68.23
57791;BME280;43621;51.798;21.588;2022-10-31T03:26:25;100303.75;;;8.85;68.28
57791;BME280;43621;51.798;21.588;2022-10-31T03:30:31;100303.54;;;8.85;68.26
57791;BME280;43621;51.798;21.588;2022-10-31T03:34:39;100303.35;;;8.81;68.25
57791;BME280;43621;51.798;21.588;2022-10-31T03:38:47;100304.61;;;8.76;68.40
57791;BME280;43621;51.798;21.588;2022-10-31T03:42:56;100305.39;;;8.73;68.49
57791;BME280;43621;51.798;21.588;2022-10-31T03:47:03;100307.47;;;8.73;68.41
57791;BME280;43621;51.798;21.588;2022-10-31T03:51:13;100309.60;;;8.79;68.62
57791;BME280;43621;51.798;21.588;2022-10-31T03:55:22;100313.23;;;8.79;68.32
57791;BME280;43621;51.798;21.588;2022-10-31T03:59:34;100320.38;;;8.75;68.36
57791;BME280;43621;51.798;21.588;2022-10-31T04:03:41;100322.66;;;8.68;68.40
57791;BME280;43621;51.798;21.588;2022-10-31T04:07:49;100326.39;;;8.62;68.43
57791;BME280;43621;51.798;21.588;2022-10-31T04:11:57;100332.09;;;8.63;68.45
57791;BME280;43621;51.798;21.588;2022-10-31T04:16:06;100334.73;;;8.65;68.39
57791;BME280;43621;51.798;21.588;2022-10-31T04:20:12;100338.09;;;8.66;68.60
57791;BME280;43621;51.798;21.588;2022-10-31T04:24:20;100339.42;;;8.67;68.58
57791;BME280;43621;51.798;21.588;2022-10-31T04:28:25;100334.48;;;8.61;68.47
57791;BME280;43621;51.798;21.588;2022-10-31T04:32:29;100335.27;;;8.53;68.42
57791;BME280;43621;51.798;21.588;2022-10-31T04:36:34;100343.11;;;8.49;68.55
57791;BME280;43621;51.798;21.588;2022-10-31T04:40:39;100346.98;;;8.48;68.53
57791;BME280;43621;51.798;21.588;2022-10-31T04:44:44;100347.04;;;8.50;68.49
57791;BME280;43621;51.798;21.588;2022-10-31T04:48:49;100349.38;;;8.55;68.97
57791;BME280;43621;51.798;21.588;2022-10-31T04:52:54;100348.77;;;8.56;68.87
57791;BME280;43621;51.798;21.588;2022-10-31T04:56:59;100344.64;;;8.52;68.65
57791;BME280;43621;51.798;21.588;2022-10-31T05:01:03;100337.69;;;8.45;68.62
57791;BME280;43621;51.798;21.588;2022-10-31T05:05:09;100339.38;;;8.41;68.56
57791;BME280;43621;51.798;21.588;2022-10-31T05:09:14;100346.31;;;8.41;68.45
57791;BME280;43621;51.798;21.588;2022-10-31T05:13:18;100352.77;;;8.41;68.53
57791;BME280;43621;51.798;21.588;2022-10-31T05:17:23;100354.67;;;8.39;68.58
57791;BME280;43621;51.798;21.588;2022-10-31T05:21:28;100357.20;;;8.38;68.81
57791;BME280;43621;51.798;21.588;2022-10-31T05:25:33;100363.63;;;8.38;68.94
57791;BME280;43621;51.798;21.588;2022-10-31T05:29:38;100365.77;;;8.50;69.18
57791;BME280;43621;51.798;21.588;2022-10-31T05:33:43;100370.17;;;8.63;69.01
57791;BME280;43621;51.798;21.588;2022-10-31T05:37:48;100374.77;;;8.69;68.74
57791;BME280;43621;51.798;21.588;2022-10-31T05:41:53;100378.44;;;8.71;68.62
57791;BME280;43621;51.798;21.588;2022-10-31T05:45:58;100377.41;;;8.73;68.63
57791;BME280;43621;51.798;21.588;2022-10-31T05:50:03;100382.14;;;8.77;68.58
57791;BME280;43621;51.798;21.588;2022-10-31T05:54:08;100384.34;;;8.85;68.58
57791;BME280;43621;51.798;21.588;2022-10-31T05:58:13;100383.96;;;9.05;68.69
57791;BME280;43621;51.798;21.588;2022-10-31T06:02:18;100381.55;;;9.57;69.30
57791;BME280;43621;51.798;21.588;2022-10-31T06:06:23;100381.04;;;10.52;69.55
57791;BME280;43621;51.798;21.588;2022-10-31T06:10:28;100378.34;;;11.43;68.46
57791;BME280;43621;51.798;21.588;2022-10-31T06:14:33;100384.13;;;12.30;68.56
57791;BME280;43621;51.798;21.588;2022-10-31T06:18:38;100385.12;;;13.20;67.49
57791;BME280;43621;51.798;21.588;2022-10-31T06:22:43;100383.61;;;13.72;65.93
57791;BME280;43621;51.798;21.588;2022-10-31T06:26:48;100385.20;;;14.27;65.80
57791;BME280;43621;51.798;21.588;2022-10-31T06:30:53;100388.33;;;14.89;65.49
57791;BME280;43621;51.798;21.588;2022-10-31T06:34:58;100386.06;;;15.61;65.10
57791;BME280;43621;51.798;21.588;2022-10-31T06:39:03;100385.48;;;15.96;62.68
57791;BME280;43621;51.798;21.588;2022-10-31T06:43:08;100392.73;;;15.71;61.02
57791;BME280;43621;51.798;21.588;2022-10-31T06:47:12;100394.29;;;15.43;60.52
57791;BME280;43621;51.798;21.588;2022-10-31T06:51:17;100392.10;;;15.70;61.10
57791;BME280;43621;51.798;21.588;2022-10-31T06:55:23;100389.55;;;16.33;61.03
57791;BME280;43621;51.798;21.588;2022-10-31T06:59:28;100390.23;;;17.11;60.74
57791;BME280;43621;51.798;21.588;2022-10-31T07:03:33;100392.23;;;18.13;60.00
57791;BME280;43621;51.798;21.588;2022-10-31T07:07:38;100392.63;;;19.29;58.45
57791;BME280;43621;51.798;21.588;2022-10-31T07:11:43;100390.73;;;19.93;56.80
57791;BME280;43621;51.798;21.588;2022-10-31T07:15:48;100392.39;;;20.45;54.70
57791;BME280;43621;51.798;21.588;2022-10-31T07:19:53;100392.08;;;20.82;54.32
57791;BME280;43621;51.798;21.588;2022-10-31T07:23:58;100394.28;;;21.04;53.43
57791;BME280;43621;51.798;21.588;2022-10-31T07:28:03;100401.95;;;21.31;52.17
57791;BME280;43621;51.798;21.588;2022-10-31T07:32:07;100403.89;;;21.46;50.69
57791;BME280;43621;51.798;21.588;2022-10-31T07:36:12;100406.41;;;21.57;49.83
57791;BME280;43621;51.798;21.588;2022-10-31T07:40:18;100404.83;;;21.79;49.35
57791;BME280;43621;51.798;21.588;2022-10-31T07:44:23;100408.69;;;21.86;48.06
57791;BME280;43621;51.798;21.588;2022-10-31T07:48:28;100405.14;;;21.98;47.82
57791;BME280;43621;51.798;21.588;2022-10-31T07:52:33;100407.48;;;22.19;47.95
57791;BME280;43621;51.798;21.588;2022-10-31T07:56:42;100409.27;;;22.95;47.80
57791;BME280;43621;51.798;21.588;2022-10-31T08:00:47;100415.11;;;23.56;45.48
57791;BME280;43621;51.798;21.588;2022-10-31T08:04:52;100414.95;;;23.82;44.19
57791;BME280;43621;51.798;21.588;2022-10-31T08:08:57;100411.17;;;24.31;44.37
57791;BME280;43621;51.798;21.588;2022-10-31T08:13:04;100406.84;;;24.92;43.68
57791;BME280;43621;51.798;21.588;2022-10-31T08:17:09;100407.73;;;25.90;43.49
57791;BME280;43621;51.798;21.588;2022-10-31T08:21:14;100409.52;;;27.14;41.92
57791;BME280;43621;51.798;21.588;2022-10-31T08:25:19;100409.68;;;28.32;40.46
57791;BME280;43621;51.798;21.588;2022-10-31T08:29:24;100411.34;;;29.38;39.60
57791;BME280;43621;51.798;21.588;2022-10-31T08:33:29;100410.23;;;30.27;35.38
57791;BME280;43621;51.798;21.588;2022-10-31T08:37:34;100406.45;;;30.31;34.74
57791;BME280;43621;51.798;21.588;2022-10-31T08:41:38;100410.25;;;30.03;34.55
57791;BME280;43621;51.798;21.588;2022-10-31T08:45:46;100407.51;;;29.31;34.07
57791;BME280;43621;51.798;21.588;2022-10-31T08:49:52;100409.50;;;28.33;34.55
57791;BME280;43621;51.798;21.588;2022-10-31T08:53:57;100415.07;;;27.51;35.33
57791;BME280;43621;51.798;21.588;2022-10-31T08:58:02;100413.33;;;26.80;36.42
57791;BME280;43621;51.798;21.588;2022-10-31T09:02:09;100417.37;;;26.68;37.36
57791;BME280;43621;51.798;21.588;2022-10-31T09:06:13;100418.15;;;26.79;37.77
57791;BME280;43621;51.798;21.588;2022-10-31T09:10:18;100422.90;;;26.97;37.61
57791;BME280;43621;51.798;21.588;2022-10-31T09:14:23;100429.38;;;27.13;37.41
57791;BME280;43621;51.798;21.588;2022-10-31T09:18:28;100434.02;;;27.48;37.30
57791;BME280;43621;51.798;21.588;2022-10-31T09:22:33;100439.85;;;27.62;37.08
57791;BME280;43621;51.798;21.588;2022-10-31T09:26:38;100439.05;;;27.60;36.66
57791;BME280;43621;51.798;21.588;2022-10-31T09:30:45;100437.92;;;27.53;36.52
57791;BME280;43621;51.798;21.588;2022-10-31T09:34:50;100444.06;;;27.60;36.56
57791;BME280;43621;51.798;21.588;2022-10-31T09:38:55;100448.52;;;28.08;36.26
57791;BME280;43621;51.798;21.588;2022-10-31T09:43:11;100442.33;;;29.09;35.87
57791;BME280;43621;51.798;21.588;2022-10-31T09:47:25;100441.60;;;29.79;34.83
57791;BME280;43621;51.798;21.588;2022-10-31T09:51:35;100436.58;;;30.18;34.29
57791;BME280;43621;51.798;21.588;2022-10-31T09:55:43;100434.98;;;30.49;34.21
57791;BME280;43621;51.798;21.588;2022-10-31T09:59:49;100430.80;;;30.90;33.75
57791;BME280;43621;51.798;21.588;2022-10-31T10:03:57;100438.59;;;31.70;32.78
57791;BME280;43621;51.798;21.588;2022-10-31T10:08:10;100438.79;;;32.42;32.09
57791;BME280;43621;51.798;21.588;2022-10-31T10:12:23;100435.22;;;33.62;31.07
57791;BME280;43621;51.798;21.588;2022-10-31T10:16:42;100434.20;;;34.90;31.57
57791;BME280;43621;51.798;21.588;2022-10-31T10:21:00;100432.77;;;36.04;29.70
57791;BME280;43621;51.798;21.588;2022-10-31T10:25:16;100432.14;;;36.64;27.19
57791;BME280;43621;51.798;21.588;2022-10-31T10:29:37;100436.23;;;36.45;26.58
57791;BME280;43621;51.798;21.588;2022-10-31T10:33:47;100430.89;;;36.39;26.70
57791;BME280;43621;51.798;21.588;2022-10-31T10:37:59;100429.84;;;36.03;27.22
57791;BME280;43621;51.798;21.588;2022-10-31T10:42:10;100425.84;;;34.36;27.29
57791;BME280;43621;51.798;21.588;2022-10-31T10:46:42;100425.27;;;33.48;28.80
57791;BME280;43621;51.798;21.588;2022-10-31T10:51:08;100428.77;;;32.63;29.28
57791;BME280;43621;51.798;21.588;2022-10-31T10:55:27;100424.36;;;30.94;29.23
57791;BME280;43621;51.798;21.588;2022-10-31T10:59:35;100416.67;;;29.05;30.21
57791;BME280;43621;51.798;21.588;2022-10-31T11:03:40;100420.94;;;27.45;31.53
57791;BME280;43621;51.798;21.588;2022-10-31T11:07:46;100418.87;;;26.19;32.88
57791;BME280;43621;51.798;21.588;2022-10-31T11:11:51;100415.37;;;25.37;34.27
57791;BME280;43621;51.798;21.588;2022-10-31T11:16:02;100412.95;;;24.53;35.19
57791;BME280;43621;51.798;21.588;2022-10-31T11:20:29;100411.79;;;23.88;36.37
57791;BME280;43621;51.798;21.588;2022-10-31T11:24:40;100412.03;;;23.70;36.96
57791;BME280;43621;51.798;21.588;2022-10-31T11:28:55;100409.22;;;23.47;37.43
57791;BME280;43621;51.798;21.588;2022-10-31T11:33:00;100406.52;;;23.32;37.95
57791;BME280;43621;51.798;21.588;2022-10-31T11:37:14;100406.34;;;23.14;38.33
57791;BME280;43621;51.798;21.588;2022-10-31T11:41:26;100405.25;;;22.77;39.05
57791;BME280;43621;51.798;21.588;2022-10-31T11:45:34;100399.79;;;22.55;39.46
57791;BME280;43621;51.798;21.588;2022-10-31T11:49:42;100399.07;;;22.38;39.84
57791;BME280;43621;51.798;21.588;2022-10-31T11:53:52;100396.46;;;22.25;40.29
57791;BME280;43621;51.798;21.588;2022-10-31T11:57:58;100398.50;;;22.02;40.88
57791;BME280;43621;51.798;21.588;2022-10-31T12:02:14;100404.73;;;21.98;41.11
57791;BME280;43621;51.798;21.588;2022-10-31T12:06:24;100404.96;;;21.94;41.44
57791;BME280;43621;51.798;21.588;2022-10-31T12:10:38;100403.00;;;21.89;41.89
57791;BME280;43621;51.798;21.588;2022-10-31T12:14:52;100401.84;;;21.84;42.14
57791;BME280;43621;51.798;21.588;2022-10-31T12:19:01;100400.44;;;21.81;42.50
57791;BME280;43621;51.798;21.588;2022-10-31T12:23:14;100404.00;;;21.77;42.60
57791;BME280;43621;51.798;21.588;2022-10-31T12:27:32;100404.60;;;21.67;42.91
57791;BME280;43621;51.798;21.588;2022-10-31T12:31:49;100398.77;;;21.59;43.36
57791;BME280;43621;51.798;21.588;2022-10-31T12:36:10;100401.81;;;21.52;43.98
57791;BME280;43621;51.798;21.588;2022-10-31T12:40:40;100405.00;;;21.64;44.20
57791;BME280;43621;51.798;21.588;2022-10-31T12:45:02;100399.83;;;21.66;44.13
57791;BME280;43621;51.798;21.588;2022-10-31T12:49:30;100397.17;;;21.49;44.55
57791;BME280;43621;51.798;21.588;2022-10-31T12:53:49;100399.42;;;21.31;45.05
57791;BME280;43621;51.798;21.588;2022-10-31T12:58:01;100398.85;;;21.16;45.52
57791;BME280;43621;51.798;21.588;2022-10-31T13:02:16;100403.14;;;20.97;45.86
57791;BME280;43621;51.798;21.588;2022-10-31T13:06:27;100398.77;;;20.66;46.06
57791;BME280;43621;51.798;21.588;2022-10-31T13:10:39;100395.08;;;20.38;46.55
57791;BME280;43621;51.798;21.588;2022-10-31T13:14:47;100393.20;;;19.99;47.15
57791;BME280;43621;51.798;21.588;2022-10-31T13:18:56;100395.39;;;19.54;47.89
57791;BME280;43621;51.798;21.588;2022-10-31T13:23:09;100397.41;;;19.19;48.35
57791;BME280;43621;51.798;21.588;2022-10-31T13:27:20;100396.35;;;18.84;49.17
57791;BME280;43621;51.798;21.588;2022-10-31T13:31:27;100396.23;;;18.53;49.80
57791;BME280;43621;51.798;21.588;2022-10-31T13:35:38;100388.19;;;18.26;50.56
57791;BME280;43621;51.798;21.588;2022-10-31T13:39:58;100385.95;;;18.04;51.07
57791;BME280;43621;51.798;21.588;2022-10-31T13:44:20;100386.04;;;17.85;51.83
57791;BME280;43621;51.798;21.588;2022-10-31T13:48:40;100389.03;;;17.67;52.45
57791;BME280;43621;51.798;21.588;2022-10-31T13:52:47;100390.34;;;17.52;52.69
57791;BME280;43621;51.798;21.588;2022-10-31T13:56:53;100396.04;;;17.39;52.83
57791;BME280;43621;51.798;21.588;2022-10-31T14:01:14;100395.15;;;17.21;53.15
57791;BME280;43621;51.798;21.588;2022-10-31T14:05:25;100395.31;;;17.06;53.56
57791;BME280;43621;51.798;21.588;2022-10-31T14:09:36;100397.80;;;16.96;54.10
57791;BME280;43621;51.798;21.588;2022-10-31T14:13:44;100397.09;;;16.92;54.59
57791;BME280;43621;51.798;21.588;2022-10-31T14:17:52;100397.34;;;16.90;55.29
57791;BME280;43621;51.798;21.588;2022-10-31T14:21:57;100401.45;;;16.85;55.25
57791;BME280;43621;51.798;21.588;2022-10-31T14:26:21;100402.79;;;16.79;55.58
57791;BME280;43621;51.798;21.588;2022-10-31T14:30:35;100403.54;;;16.66;55.62
57791;BME280;43621;51.798;21.588;2022-10-31T14:34:42;100405.14;;;16.53;55.85
57791;BME280;43621;51.798;21.588;2022-10-31T14:38:55;100404.57;;;16.37;56.01
57791;BME280;43621;51.798;21.588;2022-10-31T14:47:39;100402.48;;;15.99;56.49
57791;BME280;43621;51.798;21.588;2022-10-31T14:51:48;100398.73;;;15.79;56.55
57791;BME280;43621;51.798;21.588;2022-10-31T14:55:56;100399.99;;;15.59;56.95
57791;BME280;43621;51.798;21.588;2022-10-31T15:00:03;100396.27;;;15.44;57.39
57791;BME280;43621;51.798;21.588;2022-10-31T15:04:14;100397.23;;;15.33;57.67
57791;BME280;43621;51.798;21.588;2022-10-31T15:08:37;100400.42;;;15.23;57.99
57791;BME280;43621;51.798;21.588;2022-10-31T15:12:43;100403.20;;;15.13;58.49
57791;BME280;43621;51.798;21.588;2022-10-31T15:16:47;100403.61;;;15.01;58.83
57791;BME280;43621;51.798;21.588;2022-10-31T15:20:54;100398.76;;;14.85;58.77
57791;BME280;43621;51.798;21.588;2022-10-31T15:25:00;100398.04;;;14.68;59.01
57791;BME280;43621;51.798;21.588;2022-10-31T15:29:10;100400.92;;;14.59;59.37
57791;BME280;43621;51.798;21.588;2022-10-31T15:33:23;100397.36;;;14.53;59.55
57791;BME280;43621;51.798;21.588;2022-10-31T15:37:28;100400.44;;;14.45;59.86
57791;BME280;43621;51.798;21.588;2022-10-31T15:41:38;100405.78;;;14.46;60.71
57791;BME280;43621;51.798;21.588;2022-10-31T15:45:47;100408.20;;;14.42;61.05
57791;BME280;43621;51.798;21.588;2022-10-31T15:49:53;100408.21;;;14.42;61.05
57791;BME280;43621;51.798;21.588;2022-10-31T15:53:59;100409.29;;;14.44;61.46
57791;BME280;43621;51.798;21.588;2022-10-31T15:58:11;100410.85;;;14.38;62.19
57791;BME280;43621;51.798;21.588;2022-10-31T16:02:21;100414.29;;;14.37;62.51
57791;BME280;43621;51.798;21.588;2022-10-31T16:06:27;100415.00;;;14.35;62.48
57791;BME280;43621;51.798;21.588;2022-10-31T16:10:34;100417.30;;;14.35;63.11
57791;BME280;43621;51.798;21.588;2022-10-31T16:14:42;100414.69;;;14.33;63.33
57791;BME280;43621;51.798;21.588;2022-10-31T16:18:48;100412.63;;;14.29;63.45
57791;BME280;43621;51.798;21.588;2022-10-31T16:22:55;100413.06;;;14.28;63.46
57791;BME280;43621;51.798;21.588;2022-10-31T16:27:04;100413.46;;;14.28;63.62
57791;BME280;43621;51.798;21.588;2022-10-31T16:31:15;100414.79;;;14.25;63.98
57791;BME280;43621;51.798;21.588;2022-10-31T16:35:26;100417.81;;;14.20;64.57
57791;BME280;43621;51.798;21.588;2022-10-31T16:39:32;100417.08;;;14.13;64.77
57791;BME280;43621;51.798;21.588;2022-10-31T16:43:37;100422.45;;;14.10;65.31
57791;BME280;43621;51.798;21.588;2022-10-31T16:47:42;100423.66;;;14.10;65.39
57791;BME280;43621;51.798;21.588;2022-10-31T16:51:47;100426.30;;;14.16;65.81
57791;BME280;43621;51.798;21.588;2022-10-31T16:55:54;100428.61;;;14.12;65.73
57791;BME280;43621;51.798;21.588;2022-10-31T16:59:59;100437.51;;;14.09;65.91
57791;BME280;43621;51.798;21.588;2022-10-31T17:04:04;100438.80;;;14.03;66.72
57791;BME280;43621;51.798;21.588;2022-10-31T17:08:09;100443.38;;;13.96;66.91
57791;BME280;43621;51.798;21.588;2022-10-31T17:12:17;100446.63;;;13.95;67.01
57791;BME280;43621;51.798;21.588;2022-10-31T17:16:23;100448.27;;;13.87;67.13
57791;BME280;43621;51.798;21.588;2022-10-31T17:20:30;100448.83;;;13.83;67.36
57791;BME280;43621;51.798;21.588;2022-10-31T17:24:35;100441.73;;;13.78;67.40
57791;BME280;43621;51.798;21.588;2022-10-31T17:28:40;100437.49;;;13.75;67.76
57791;BME280;43621;51.798;21.588;2022-10-31T17:32:45;100441.52;;;13.73;68.13
57791;BME280;43621;51.798;21.588;2022-10-31T17:36:52;100437.17;;;13.66;68.57
57791;BME280;43621;51.798;21.588;2022-10-31T17:40:57;100431.32;;;13.59;68.95
57791;BME280;43621;51.798;21.588;2022-10-31T17:45:02;100428.82;;;13.60;69.13
57791;BME280;43621;51.798;21.588;2022-10-31T17:49:09;100430.18;;;13.58;69.29
57791;BME280;43621;51.798;21.588;2022-10-31T17:53:14;100434.35;;;13.57;69.72
57791;BME280;43621;51.798;21.588;2022-10-31T17:57:19;100430.89;;;13.53;69.96
57791;BME280;43621;51.798;21.588;2022-10-31T18:01:24;100433.91;;;13.45;69.58
57791;BME280;43621;51.798;21.588;2022-10-31T18:05:29;100433.11;;;13.46;69.51
57791;BME280;43621;51.798;21.588;2022-10-31T18:09:34;100432.06;;;13.46;69.64
57791;BME280;43621;51.798;21.588;2022-10-31T18:13:39;100427.27;;;13.43;69.75
57791;BME280;43621;51.798;21.588;2022-10-31T18:17:44;100433.84;;;13.41;70.20
57791;BME280;43621;51.798;21.588;2022-10-31T18:21:50;100438.65;;;13.36;70.47
57791;BME280;43621;51.798;21.588;2022-10-31T18:25:55;100442.20;;;13.36;70.64
57791;BME280;43621;51.798;21.588;2022-10-31T18:30:00;100444.50;;;13.41;70.65
57791;BME280;43621;51.798;21.588;2022-10-31T18:34:05;100444.14;;;13.45;70.41
57791;BME280;43621;51.798;21.588;2022-10-31T18:38:10;100446.98;;;13.48;70.12
57791;BME280;43621;51.798;21.588;2022-10-31T18:42:15;100449.85;;;13.49;70.14
57791;BME280;43621;51.798;21.588;2022-10-31T18:46:20;100445.52;;;13.41;70.45
57791;BME280;43621;51.798;21.588;2022-10-31T18:50:26;100444.45;;;13.27;70.84
57791;BME280;43621;51.798;21.588;2022-10-31T18:54:30;100449.13;;;13.10;71.18
57791;BME280;43621;51.798;21.588;2022-10-31T18:58:35;100442.16;;;12.95;71.48
57791;BME280;43621;51.798;21.588;2022-10-31T19:02:41;100436.35;;;12.79;72.12
57791;BME280;43621;51.798;21.588;2022-10-31T19:06:46;100432.45;;;12.63;71.87
57791;BME280;43621;51.798;21.588;2022-10-31T19:10:51;100426.29;;;12.59;72.02
57791;BME280;43621;51.798;21.588;2022-10-31T19:14:56;100421.64;;;12.54;72.09
57791;BME280;43621;51.798;21.588;2022-10-31T19:19:01;100419.90;;;12.56;71.90
57791;BME280;43621;51.798;21.588;2022-10-31T19:23:06;100419.17;;;12.60;71.74
57791;BME280;43621;51.798;21.588;2022-10-31T19:27:11;100416.17;;;12.66;71.75
57791;BME280;43621;51.798;21.588;2022-10-31T19:31:16;100413.19;;;12.73;71.84
57791;BME280;43621;51.798;21.588;2022-10-31T19:35:22;100412.77;;;12.74;71.86
57791;BME280;43621;51.798;21.588;2022-10-31T19:39:27;100411.92;;;12.77;71.83
57791;BME280;43621;51.798;21.588;2022-10-31T19:43:32;100414.92;;;12.88;71.78
57791;BME280;43621;51.798;21.588;2022-10-31T19:47:37;100415.58;;;13.04;72.02
57791;BME280;43621;51.798;21.588;2022-10-31T19:51:42;100411.45;;;13.07;71.91
57791;BME280;43621;51.798;21.588;2022-10-31T19:55:47;100407.63;;;13.06;71.64
57791;BME280;43621;51.798;21.588;2022-10-31T19:59:52;100403.15;;;13.13;71.74
57791;BME280;43621;51.798;21.588;2022-10-31T20:03:57;100404.79;;;13.24;71.82
57791;BME280;43621;51.798;21.588;2022-10-31T20:08:02;100408.13;;;13.29;71.63
57791;BME280;43621;51.798;21.588;2022-10-31T20:12:08;100411.44;;;13.31;71.70
57791;BME280;43621;51.798;21.588;2022-10-31T20:16:14;100408.13;;;13.33;71.79
57791;BME280;43621;51.798;21.588;2022-10-31T20:20:19;100406.56;;;13.31;71.89
57791;BME280;43621;51.798;21.588;2022-10-31T20:24:24;100411.50;;;13.25;71.73
57791;BME280;43621;51.798;21.588;2022-10-31T20:28:31;100408.32;;;13.25;72.01
57791;BME280;43621;51.798;21.588;2022-10-31T20:32:36;100405.48;;;13.24;72.43
57791;BME280;43621;51.798;21.588;2022-10-31T20:36:41;100405.38;;;13.27;72.68
57791;BME280;43621;51.798;21.588;2022-10-31T20:40:46;100397.52;;;13.27;72.72
57791;BME280;43621;51.798;21.588;2022-10-31T20:44:51;100389.12;;;13.23;73.05
57791;BME280;43621;51.798;21.588;2022-10-31T20:48:55;100388.74;;;13.21;72.88
57791;BME280;43621;51.798;21.588;2022-10-31T20:53:00;100384.16;;;13.20;73.02
57791;BME280;43621;51.798;21.588;2022-10-31T20:57:05;100381.58;;;13.17;73.28
57791;BME280;43621;51.798;21.588;2022-10-31T21:01:13;100382.34;;;13.10;73.39
57791;BME280;43621;51.798;21.588;2022-10-31T21:05:19;100383.42;;;13.07;73.60
57791;BME280;43621;51.798;21.588;2022-10-31T21:09:24;100384.67;;;13.08;74.17
57791;BME280;43621;51.798;21.588;2022-10-31T21:13:28;100385.73;;;13.14;73.85
57791;BME280;43621;51.798;21.588;2022-10-31T21:17:34;100385.57;;;13.16;73.84
57791;BME280;43621;51.798;21.588;2022-10-31T21:21:39;100383.61;;;13.12;73.78
57791;BME280;43621;51.798;21.588;2022-10-31T21:25:44;100386.10;;;13.13;73.81
57791;BME280;43621;51.798;21.588;2022-10-31T21:29:49;100378.67;;;13.20;73.77